sensor_id;sensor_type;location;lat;lon;timestamp;pressure;altitude;pressure_sealevel;temperature;humidity
16834;BME280;8533;48.426;10.868;2023-05-27T00:01:45;96768.22;;;13.53;90.79
16834;BME280;8533;48.426;10.868;2023-05-27T00:04:10;96770.50;;;13.45;90.84
16834;BME280;8533;48.426;10.868;2023-05-27T00:06:35;96813.88;;;13.69;92.45
16834;BME280;8533;48.426;10.868;2023-05-27T00:09:01;96796.06;;;13.54;92.33
16834;BME280;8533;48.426;10.868;2023-05-27T00:11:26;96798.97;;;13.53;94.01
16834;BME280;8533;48.426;10.868;2023-05-27T00:13:51;96774.84;;;13.34;92.90
16834;BME280;8533;48.426;10.868;2023-05-27T00:16:17;96802.31;;;13.48;93.29
16834;BME280;8533;48.426;10.868;2023-05-27T00:18:42;96762.34;;;13.19;92.35
16834;BME280;8533;48.426;10.868;2023-05-27T00:21:07;96755.19;;;13.15;92.04
16834;BME280;8533;48.426;10.868;2023-05-27T00:23:33;96815.97;;;13.45;91.13
16834;BME280;8533;48.426;10.868;2023-05-27T00:25:58;96789.56;;;13.35;91.06
16834;BME280;8533;48.426;10.868;2023-05-27T00:28:23;96793.72;;;13.31;91.51
16834;BME280;8533;48.426;10.868;2023-05-27T00:30:49;96760.97;;;12.95;92.41
16834;BME280;8533;48.426;10.868;2023-05-27T00:33:14;96810.53;;;13.30;93.15
16834;BME280;8533;48.426;10.868;2023-05-27T00:35:39;96788.44;;;13.09;93.22
16834;BME280;8533;48.426;10.868;2023-05-27T00:38:05;96722.91;;;12.76;92.05
16834;BME280;8533;48.426;10.868;2023-05-27T00:40:30;96790.03;;;13.10;92.63
16834;BME280;8533;48.426;10.868;2023-05-27T00:42:57;96774.66;;;12.97;92.47
16834;BME280;8533;48.426;10.868;2023-05-27T00:45:22;96796.09;;;13.11;93.21
16834;BME280;8533;48.426;10.868;2023-05-27T00:47:48;96789.19;;;13.05;92.83
16834;BME280;8533;48.426;10.868;2023-05-27T00:50:14;96797.38;;;13.08;92.33
16834;BME280;8533;48.426;10.868;2023-05-27T00:52:40;96796.28;;;13.04;93.20
16834;BME280;8533;48.426;10.868;2023-05-27T00:55:06;96773.41;;;12.83;92.86
16834;BME280;8533;48.426;10.868;2023-05-27T00:57:31;96806.78;;;13.04;91.55
16834;BME280;8533;48.426;10.868;2023-05-27T00:59:58;96796.94;;;12.94;93.44
16834;BME280;8533;48.426;10.868;2023-05-27T01:02:23;96800.41;;;13.00;92.43
16834;BME280;8533;48.426;10.868;2023-05-27T01:04:48;96777.06;;;12.82;93.31
16834;BME280;8533;48.426;10.868;2023-05-27T01:07:35;96791.44;;;12.96;91.82
16834;BME280;8533;48.426;10.868;2023-05-27T01:10:12;96780.53;;;13.04;90.14
16834;BME280;8533;48.426;10.868;2023-05-27T01:12:47;96718.13;;;12.51;90.07
16834;BME280;8533;48.426;10.868;2023-05-27T01:15:14;96777.28;;;12.97;89.36
16834;BME280;8533;48.426;10.868;2023-05-27T01:17:40;96795.25;;;13.05;88.64
16834;BME280;8533;48.426;10.868;2023-05-27T01:20:09;96766.75;;;12.75;87.78
16834;BME280;8533;48.426;10.868;2023-05-27T01:22:35;96780.53;;;13.04;89.12
16834;BME280;8533;48.426;10.868;2023-05-27T01:25:01;96778.13;;;13.03;86.52
16834;BME280;8533;48.426;10.868;2023-05-27T01:27:28;96713.81;;;12.61;86.83
16834;BME280;8533;48.426;10.868;2023-05-27T01:29:53;96748.50;;;12.85;86.79
16834;BME280;8533;48.426;10.868;2023-05-27T01:32:30;96779.72;;;13.04;85.88
16834;BME280;8533;48.426;10.868;2023-05-27T01:37:51;96775.44;;;12.97;85.54
16834;BME280;8533;48.426;10.868;2023-05-27T01:40:18;96757.78;;;12.93;84.52
16834;BME280;8533;48.426;10.868;2023-05-27T01:42:44;96774.66;;;12.97;85.02
16834;BME280;8533;48.426;10.868;2023-05-27T01:45:10;96763.00;;;12.88;86.69
16834;BME280;8533;48.426;10.868;2023-05-27T01:47:36;96763.00;;;12.88;87.06
16834;BME280;8533;48.426;10.868;2023-05-27T01:50:02;96764.03;;;12.87;85.31
16834;BME280;8533;48.426;10.868;2023-05-27T01:52:28;96730.34;;;12.62;83.82
16834;BME280;8533;48.426;10.868;2023-05-27T01:54:59;96700.97;;;12.43;84.08
16834;BME280;8533;48.426;10.868;2023-05-27T01:57:25;96769.44;;;12.80;86.44
16834;BME280;8533;48.426;10.868;2023-05-27T01:59:50;96770.41;;;12.74;86.47
16834;BME280;8533;48.426;10.868;2023-05-27T02:02:16;96751.34;;;12.62;86.11
16834;BME280;8533;48.426;10.868;2023-05-27T02:04:41;96766.59;;;12.65;87.26
16834;BME280;8533;48.426;10.868;2023-05-27T02:07:06;96748.81;;;12.50;86.31
16834;BME280;8533;48.426;10.868;2023-05-27T02:09:31;96752.97;;;12.46;85.97
16834;BME280;8533;48.426;10.868;2023-05-27T02:11:57;96718.97;;;12.18;86.62
16834;BME280;8533;48.426;10.868;2023-05-27T02:14:22;96776.19;;;12.54;85.14
16834;BME280;8533;48.426;10.868;2023-05-27T02:16:47;96772.25;;;12.57;85.15
16834;BME280;8533;48.426;10.868;2023-05-27T02:19:14;96764.56;;;12.50;86.66
16834;BME280;8533;48.426;10.868;2023-05-27T02:21:40;96724.06;;;12.24;85.05
16834;BME280;8533;48.426;10.868;2023-05-27T02:24:05;96756.06;;;12.43;86.13
16834;BME280;8533;48.426;10.868;2023-05-27T02:26:31;96760.94;;;12.35;85.03
16834;BME280;8533;48.426;10.868;2023-05-27T02:28:56;96612.81;;;11.48;86.46
16834;BME280;8533;48.426;10.868;2023-05-27T02:31:21;96745.38;;;12.28;86.13
16834;BME280;8533;48.426;10.868;2023-05-27T02:33:47;96765.38;;;12.34;85.36
16834;BME280;8533;48.426;10.868;2023-05-27T02:36:12;96759.28;;;12.29;86.06
16834;BME280;8533;48.426;10.868;2023-05-27T02:38:38;96771.13;;;12.31;86.01
16834;BME280;8533;48.426;10.868;2023-05-27T02:41:03;96758.72;;;12.27;85.21
16834;BME280;8533;48.426;10.868;2023-05-27T02:43:28;96753.16;;;12.23;86.07
16834;BME280;8533;48.426;10.868;2023-05-27T02:45:54;96749.91;;;12.16;85.94
16834;BME280;8533;48.426;10.868;2023-05-27T02:48:19;96748.06;;;12.16;87.20
16834;BME280;8533;48.426;10.868;2023-05-27T02:50:44;96715.09;;;11.87;86.58
16834;BME280;8533;48.426;10.868;2023-05-27T02:53:10;96706.75;;;11.73;86.80
16834;BME280;8533;48.426;10.868;2023-05-27T02:55:35;96734.81;;;11.90;88.48
16834;BME280;8533;48.426;10.868;2023-05-27T02:58:00;96681.56;;;11.56;85.98
16834;BME280;8533;48.426;10.868;2023-05-27T03:00:26;96708.66;;;11.78;86.14
16834;BME280;8533;48.426;10.868;2023-05-27T03:02:52;96751.59;;;12.05;86.76
16834;BME280;8533;48.426;10.868;2023-05-27T03:05:17;96679.00;;;11.61;86.64
16834;BME280;8533;48.426;10.868;2023-05-27T03:07:42;96725.53;;;11.82;87.58
16834;BME280;8533;48.426;10.868;2023-05-27T03:10:08;96621.22;;;11.17;86.89
16834;BME280;8533;48.426;10.868;2023-05-27T03:12:34;96746.09;;;11.90;86.45
16834;BME280;8533;48.426;10.868;2023-05-27T03:14:59;96710.84;;;11.69;86.05
16834;BME280;8533;48.426;10.868;2023-05-27T03:17:25;96744.41;;;11.84;87.45
16834;BME280;8533;48.426;10.868;2023-05-27T03:19:50;96758.59;;;12.00;84.96
16834;BME280;8533;48.426;10.868;2023-05-27T03:22:16;96757.69;;;11.94;85.58
16834;BME280;8533;48.426;10.868;2023-05-27T03:24:41;96738.94;;;11.85;85.67
16834;BME280;8533;48.426;10.868;2023-05-27T03:27:07;96688.28;;;11.52;85.27
16834;BME280;8533;48.426;10.868;2023-05-27T03:29:32;96753.16;;;11.90;84.56
16834;BME280;8533;48.426;10.868;2023-05-27T03:31:58;96732.75;;;11.75;84.79
16834;BME280;8533;48.426;10.868;2023-05-27T03:34:23;96621.88;;;10.96;86.48
16834;BME280;8533;48.426;10.868;2023-05-27T03:36:48;96758.25;;;11.79;86.38
16834;BME280;8533;48.426;10.868;2023-05-27T03:39:16;96758.69;;;11.76;87.06
16834;BME280;8533;48.426;10.868;2023-05-27T03:41:42;96714.97;;;11.48;85.30
16834;BME280;8533;48.426;10.868;2023-05-27T03:44:07;96761.41;;;11.81;85.87
16834;BME280;8533;48.426;10.868;2023-05-27T03:46:33;96768.16;;;11.77;84.98
16834;BME280;8533;48.426;10.868;2023-05-27T03:48:59;96742.31;;;11.69;84.50
16834;BME280;8533;48.426;10.868;2023-05-27T03:51:24;96755.06;;;11.77;85.18
16834;BME280;8533;48.426;10.868;2023-05-27T03:53:49;96752.47;;;11.66;85.70
16834;BME280;8533;48.426;10.868;2023-05-27T03:56:15;96695.72;;;11.26;86.40
16834;BME280;8533;48.426;10.868;2023-05-27T03:58:40;96772.16;;;11.68;87.86
16834;BME280;8533;48.426;10.868;2023-05-27T04:01:05;96766.44;;;11.71;87.08
16834;BME280;8533;48.426;10.868;2023-05-27T04:03:31;96725.13;;;11.45;86.29
16834;BME280;8533;48.426;10.868;2023-05-27T04:05:57;96726.25;;;11.49;88.13
16834;BME280;8533;48.426;10.868;2023-05-27T04:08:23;96751.84;;;11.59;85.86
16834;BME280;8533;48.426;10.868;2023-05-27T04:10:52;96740.00;;;11.56;85.87
16834;BME280;8533;48.426;10.868;2023-05-27T04:13:18;96735.31;;;11.58;87.61
16834;BME280;8533;48.426;10.868;2023-05-27T04:15:43;96752.78;;;11.69;88.35
16834;BME280;8533;48.426;10.868;2023-05-27T04:18:09;96755.06;;;11.77;86.55
16834;BME280;8533;48.426;10.868;2023-05-27T04:20:37;96604.41;;;10.85;87.60
16834;BME280;8533;48.426;10.868;2023-05-27T04:23:02;96592.50;;;10.77;86.56
16834;BME280;8533;48.426;10.868;2023-05-27T04:25:27;96718.66;;;11.64;85.25
16834;BME280;8533;48.426;10.868;2023-05-27T04:27:53;96756.09;;;11.93;85.98
16834;BME280;8533;48.426;10.868;2023-05-27T04:30:18;96752.69;;;11.93;85.70
16834;BME280;8533;48.426;10.868;2023-05-27T04:32:43;96743.63;;;11.83;86.35
16834;BME280;8533;48.426;10.868;2023-05-27T04:35:09;96750.53;;;11.90;88.42
16834;BME280;8533;48.426;10.868;2023-05-27T04:37:34;96758.25;;;11.96;86.53
16834;BME280;8533;48.426;10.868;2023-05-27T04:40:02;96614.53;;;11.09;84.39
16834;BME280;8533;48.426;10.868;2023-05-27T04:42:28;96762.31;;;12.04;87.95
16834;BME280;8533;48.426;10.868;2023-05-27T04:44:54;96758.31;;;12.01;87.49
16834;BME280;8533;48.426;10.868;2023-05-27T04:47:19;96725.28;;;11.83;85.56
16834;BME280;8533;48.426;10.868;2023-05-27T04:49:47;96769.69;;;12.07;87.05
16834;BME280;8533;48.426;10.868;2023-05-27T04:52:12;96765.72;;;12.21;86.57
16834;BME280;8533;48.426;10.868;2023-05-27T04:54:37;96741.41;;;12.09;84.76
16834;BME280;8533;48.426;10.868;2023-05-27T04:57:03;96618.91;;;11.37;83.47
16834;BME280;8533;48.426;10.868;2023-05-27T04:59:28;96736.06;;;12.20;84.07
16834;BME280;8533;48.426;10.868;2023-05-27T05:02:27;96757.66;;;12.44;81.92
16834;BME280;8533;48.426;10.868;2023-05-27T05:05:09;96770.06;;;12.49;81.94
16834;BME280;8533;48.426;10.868;2023-05-27T05:07:38;96761.25;;;12.55;81.85
16834;BME280;8533;48.426;10.868;2023-05-27T05:10:06;96749.72;;;12.56;83.07
16834;BME280;8533;48.426;10.868;2023-05-27T05:12:32;96760.88;;;12.68;83.22
16834;BME280;8533;48.426;10.868;2023-05-27T05:14:58;96764.31;;;12.69;82.04
16834;BME280;8533;48.426;10.868;2023-05-27T05:17:23;96755.38;;;12.70;80.91
16834;BME280;8533;48.426;10.868;2023-05-27T05:19:50;96749.66;;;12.73;81.39
16834;BME280;8533;48.426;10.868;2023-05-27T05:22:15;96754.41;;;12.76;80.09
16834;BME280;8533;48.426;10.868;2023-05-27T05:24:44;96772.19;;;12.90;80.74
16834;BME280;8533;48.426;10.868;2023-05-27T05:27:09;96742.78;;;12.88;78.90
16834;BME280;8533;48.426;10.868;2023-05-27T05:29:35;96764.91;;;12.97;81.81
16834;BME280;8533;48.426;10.868;2023-05-27T05:32:00;96771.72;;;13.15;80.09
16834;BME280;8533;48.426;10.868;2023-05-27T05:34:25;96771.50;;;13.17;79.94
16834;BME280;8533;48.426;10.868;2023-05-27T05:36:51;96740.09;;;13.05;81.59
16834;BME280;8533;48.426;10.868;2023-05-27T05:39:16;96756.94;;;13.31;77.09
16834;BME280;8533;48.426;10.868;2023-05-27T05:41:42;96758.28;;;13.33;75.63
16834;BME280;8533;48.426;10.868;2023-05-27T05:44:07;96717.06;;;13.12;75.61
16834;BME280;8533;48.426;10.868;2023-05-27T05:46:32;96740.13;;;13.32;78.14
16834;BME280;8533;48.426;10.868;2023-05-27T05:48:57;96764.53;;;13.54;76.54
16834;BME280;8533;48.426;10.868;2023-05-27T05:51:23;96714.38;;;13.29;74.29
16834;BME280;8533;48.426;10.868;2023-05-27T05:53:48;96788.06;;;13.66;73.83
16834;BME280;8533;48.426;10.868;2023-05-27T05:56:13;96660.78;;;13.08;74.23
16834;BME280;8533;48.426;10.868;2023-05-27T05:58:38;96765.06;;;13.78;74.34
16834;BME280;8533;48.426;10.868;2023-05-27T06:01:04;96764.78;;;13.80;78.53
16834;BME280;8533;48.426;10.868;2023-05-27T06:03:29;96554.13;;;12.48;74.78
16834;BME280;8533;48.426;10.868;2023-05-27T06:05:55;96711.34;;;13.69;75.18
16834;BME280;8533;48.426;10.868;2023-05-27T06:08:20;96746.38;;;14.11;75.41
16834;BME280;8533;48.426;10.868;2023-05-27T06:10:45;96774.59;;;14.21;75.13
16834;BME280;8533;48.426;10.868;2023-05-27T06:13:11;96778.22;;;14.42;77.07
16834;BME280;8533;48.426;10.868;2023-05-27T06:15:37;96785.81;;;14.38;73.06
16834;BME280;8533;48.426;10.868;2023-05-27T06:18:03;96752.84;;;14.31;73.42
16834;BME280;8533;48.426;10.868;2023-05-27T06:20:29;96753.06;;;14.24;72.66
16834;BME280;8533;48.426;10.868;2023-05-27T06:22:54;96774.31;;;14.49;72.43
16834;BME280;8533;48.426;10.868;2023-05-27T06:25:19;96766.69;;;14.53;74.32
16834;BME280;8533;48.426;10.868;2023-05-27T06:27:45;96764.19;;;14.78;72.02
16834;BME280;8533;48.426;10.868;2023-05-27T06:30:11;96774.63;;;14.58;70.63
16834;BME280;8533;48.426;10.868;2023-05-27T06:32:36;96745.59;;;14.48;72.06
16834;BME280;8533;48.426;10.868;2023-05-27T06:35:01;96783.66;;;14.67;71.42
16834;BME280;8533;48.426;10.868;2023-05-27T06:37:27;96735.69;;;14.65;72.91
16834;BME280;8533;48.426;10.868;2023-05-27T06:39:52;96771.19;;;15.05;74.18
16834;BME280;8533;48.426;10.868;2023-05-27T06:42:17;96771.00;;;15.26;72.48
16834;BME280;8533;48.426;10.868;2023-05-27T06:44:44;96757.56;;;15.23;70.70
16834;BME280;8533;48.426;10.868;2023-05-27T06:47:09;96765.22;;;15.30;69.50
16834;BME280;8533;48.426;10.868;2023-05-27T06:49:36;96759.16;;;15.34;69.74
16834;BME280;8533;48.426;10.868;2023-05-27T06:52:01;96727.78;;;15.33;68.14
16834;BME280;8533;48.426;10.868;2023-05-27T06:54:26;96765.81;;;15.57;68.99
16834;BME280;8533;48.426;10.868;2023-05-27T06:56:52;96740.72;;;15.39;68.56
16834;BME280;8533;48.426;10.868;2023-05-27T06:59:17;96707.19;;;15.14;68.22
16834;BME280;8533;48.426;10.868;2023-05-27T07:01:42;96760.84;;;15.65;69.10
16834;BME280;8533;48.426;10.868;2023-05-27T07:04:08;96757.97;;;15.92;69.31
16834;BME280;8533;48.426;10.868;2023-05-27T07:06:33;96759.28;;;16.30;66.91
16834;BME280;8533;48.426;10.868;2023-05-27T07:08:59;96746.09;;;16.20;66.05
16834;BME280;8533;48.426;10.868;2023-05-27T07:11:24;96745.00;;;16.47;66.05
16834;BME280;8533;48.426;10.868;2023-05-27T07:13:51;96740.25;;;16.38;66.07
16834;BME280;8533;48.426;10.868;2023-05-27T07:16:16;96753.97;;;16.66;64.50
16834;BME280;8533;48.426;10.868;2023-05-27T07:18:42;96776.72;;;16.62;63.22
16834;BME280;8533;48.426;10.868;2023-05-27T07:21:08;96756.59;;;16.76;65.55
16834;BME280;8533;48.426;10.868;2023-05-27T07:23:33;96731.53;;;16.63;65.51
16834;BME280;8533;48.426;10.868;2023-05-27T07:25:59;96693.75;;;16.48;65.54
16834;BME280;8533;48.426;10.868;2023-05-27T07:28:24;96770.59;;;16.76;63.72
16834;BME280;8533;48.426;10.868;2023-05-27T07:30:50;96735.69;;;16.79;65.08
16834;BME280;8533;48.426;10.868;2023-05-27T07:33:15;96761.84;;;16.91;64.91
16834;BME280;8533;48.426;10.868;2023-05-27T07:35:40;96769.19;;;17.09;64.49
16834;BME280;8533;48.426;10.868;2023-05-27T07:38:06;96765.44;;;17.15;65.74
16834;BME280;8533;48.426;10.868;2023-05-27T07:40:31;96754.91;;;17.05;63.19
16834;BME280;8533;48.426;10.868;2023-05-27T07:42:56;96769.91;;;17.25;64.96
16834;BME280;8533;48.426;10.868;2023-05-27T07:45:21;96762.69;;;17.36;65.36
16834;BME280;8533;48.426;10.868;2023-05-27T07:47:48;96764.53;;;17.35;63.49
16834;BME280;8533;48.426;10.868;2023-05-27T07:50:13;96701.59;;;16.93;61.95
16834;BME280;8533;48.426;10.868;2023-05-27T07:52:39;96745.97;;;17.50;62.65
16834;BME280;8533;48.426;10.868;2023-05-27T07:55:05;96731.38;;;17.63;63.97
16834;BME280;8533;48.426;10.868;2023-05-27T07:57:31;96764.75;;;17.93;62.05
16834;BME280;8533;48.426;10.868;2023-05-27T07:59:56;96756.81;;;17.93;63.51
16834;BME280;8533;48.426;10.868;2023-05-27T08:02:22;96622.44;;;17.12;61.23
16834;BME280;8533;48.426;10.868;2023-05-27T08:04:47;96731.19;;;17.88;60.58
16834;BME280;8533;48.426;10.868;2023-05-27T08:07:14;96719.16;;;18.01;64.20
16834;BME280;8533;48.426;10.868;2023-05-27T08:09:39;96709.47;;;17.91;62.64
16834;BME280;8533;48.426;10.868;2023-05-27T08:12:05;96694.97;;;18.13;61.50
16834;BME280;8533;48.426;10.868;2023-05-27T08:14:31;96729.72;;;18.06;59.81
16834;BME280;8533;48.426;10.868;2023-05-27T08:16:57;96738.53;;;18.30;62.10
16834;BME280;8533;48.426;10.868;2023-05-27T08:19:22;96721.03;;;18.29;59.94
16834;BME280;8533;48.426;10.868;2023-05-27T08:21:48;96678.22;;;18.46;60.41
16834;BME280;8533;48.426;10.868;2023-05-27T08:24:13;96718.59;;;18.38;61.62
16834;BME280;8533;48.426;10.868;2023-05-27T08:26:39;96720.94;;;18.68;59.54
16834;BME280;8533;48.426;10.868;2023-05-27T08:29:05;96736.13;;;18.87;59.44
16834;BME280;8533;48.426;10.868;2023-05-27T08:31:30;96586.69;;;18.11;59.53
16834;BME280;8533;48.426;10.868;2023-05-27T08:33:56;96724.56;;;19.20;59.64
16834;BME280;8533;48.426;10.868;2023-05-27T08:36:21;96620.59;;;18.33;58.55
16834;BME280;8533;48.426;10.868;2023-05-27T08:38:47;96724.91;;;19.14;57.61
16834;BME280;8533;48.426;10.868;2023-05-27T08:41:13;96687.00;;;19.13;59.42
16834;BME280;8533;48.426;10.868;2023-05-27T08:43:40;96726.28;;;19.30;60.11
16834;BME280;8533;48.426;10.868;2023-05-27T08:46:05;96723.03;;;19.57;58.64
16834;BME280;8533;48.426;10.868;2023-05-27T08:48:31;96713.25;;;19.33;58.93
16834;BME280;8533;48.426;10.868;2023-05-27T08:50:56;96699.28;;;19.28;56.90
16834;BME280;8533;48.426;10.868;2023-05-27T08:53:22;96696.59;;;19.47;59.19
16834;BME280;8533;48.426;10.868;2023-05-27T08:55:50;96524.53;;;18.27;57.10
16834;BME280;8533;48.426;10.868;2023-05-27T08:58:17;96721.72;;;19.35;57.04
16834;BME280;8533;48.426;10.868;2023-05-27T09:00:43;96716.88;;;19.61;58.23
16834;BME280;8533;48.426;10.868;2023-05-27T09:03:09;96720.38;;;19.57;56.56
16834;BME280;8533;48.426;10.868;2023-05-27T09:05:34;96582.81;;;19.45;56.08
16834;BME280;8533;48.426;10.868;2023-05-27T09:07:59;96686.50;;;20.18;55.67
16834;BME280;8533;48.426;10.868;2023-05-27T09:10:35;96710.53;;;19.76;55.92
16834;BME280;8533;48.426;10.868;2023-05-27T09:13:00;96641.63;;;19.33;54.83
16834;BME280;8533;48.426;10.868;2023-05-27T09:15:26;96644.19;;;19.57;55.34
16834;BME280;8533;48.426;10.868;2023-05-27T09:17:52;96702.09;;;20.06;56.77
16834;BME280;8533;48.426;10.868;2023-05-27T09:20:24;96710.19;;;19.64;55.21
16834;BME280;8533;48.426;10.868;2023-05-27T09:23:04;96709.66;;;19.99;55.84
16834;BME280;8533;48.426;10.868;2023-05-27T09:25:30;96676.53;;;19.78;56.79
16834;BME280;8533;48.426;10.868;2023-05-27T09:27:56;96705.25;;;19.76;56.06
16834;BME280;8533;48.426;10.868;2023-05-27T09:30:22;96540.00;;;19.52;56.46
16834;BME280;8533;48.426;10.868;2023-05-27T09:32:48;96663.41;;;20.00;55.80
16834;BME280;8533;48.426;10.868;2023-05-27T09:35:16;96675.63;;;20.15;55.40
16834;BME280;8533;48.426;10.868;2023-05-27T09:37:42;96633.44;;;20.13;56.41
16834;BME280;8533;48.426;10.868;2023-05-27T09:40:10;96711.41;;;20.36;54.50
16834;BME280;8533;48.426;10.868;2023-05-27T09:42:45;96654.41;;;20.29;55.01
16834;BME280;8533;48.426;10.868;2023-05-27T09:45:12;96533.53;;;19.58;53.91
16834;BME280;8533;48.426;10.868;2023-05-27T09:47:45;96577.47;;;19.64;53.53
16834;BME280;8533;48.426;10.868;2023-05-27T09:50:12;96671.34;;;20.33;53.60
16834;BME280;8533;48.426;10.868;2023-05-27T09:52:39;96688.69;;;20.44;54.03
16834;BME280;8533;48.426;10.868;2023-05-27T09:55:07;96690.91;;;20.83;53.88
16834;BME280;8533;48.426;10.868;2023-05-27T09:57:34;96694.53;;;20.73;53.72
16834;BME280;8533;48.426;10.868;2023-05-27T09:59:59;96692.28;;;20.67;53.01
16834;BME280;8533;48.426;10.868;2023-05-27T10:02:27;96680.44;;;20.45;53.16
16834;BME280;8533;48.426;10.868;2023-05-27T10:04:56;96669.25;;;20.16;53.04
16834;BME280;8533;48.426;10.868;2023-05-27T10:07:22;96674.50;;;21.17;56.17
16834;BME280;8533;48.426;10.868;2023-05-27T10:09:48;96647.94;;;20.89;52.12
16834;BME280;8533;48.426;10.868;2023-05-27T10:12:14;96661.72;;;20.91;52.32
16834;BME280;8533;48.426;10.868;2023-05-27T10:14:42;96636.88;;;20.96;52.22
16834;BME280;8533;48.426;10.868;2023-05-27T10:17:09;96672.44;;;21.50;51.16
16834;BME280;8533;48.426;10.868;2023-05-27T10:19:35;96553.63;;;20.95;50.00
16834;BME280;8533;48.426;10.868;2023-05-27T10:22:12;96661.66;;;21.32;50.32
16834;BME280;8533;48.426;10.868;2023-05-27T10:24:39;96667.38;;;21.26;49.79
16834;BME280;8533;48.426;10.868;2023-05-27T10:27:04;96599.31;;;20.75;50.67
16834;BME280;8533;48.426;10.868;2023-05-27T10:29:38;96665.59;;;21.57;50.67
16834;BME280;8533;48.426;10.868;2023-05-27T10:32:03;96663.59;;;21.41;49.82
16834;BME280;8533;48.426;10.868;2023-05-27T10:34:35;96653.28;;;21.61;49.40
16834;BME280;8533;48.426;10.868;2023-05-27T10:37:01;96663.47;;;21.23;50.53
16834;BME280;8533;48.426;10.868;2023-05-27T10:39:27;96654.56;;;21.28;49.96
16834;BME280;8533;48.426;10.868;2023-05-27T10:41:55;96659.38;;;21.40;49.58
16834;BME280;8533;48.426;10.868;2023-05-27T10:44:28;96655.00;;;21.08;49.47
16834;BME280;8533;48.426;10.868;2023-05-27T10:47:00;96647.19;;;21.25;50.63
16834;BME280;8533;48.426;10.868;2023-05-27T10:49:32;96640.50;;;22.25;49.45
16834;BME280;8533;48.426;10.868;2023-05-27T10:52:14;96644.56;;;21.69;49.37
16834;BME280;8533;48.426;10.868;2023-05-27T10:54:42;96643.09;;;21.41;48.81
16834;BME280;8533;48.426;10.868;2023-05-27T10:57:07;96538.16;;;20.98;48.24
16834;BME280;8533;48.426;10.868;2023-05-27T11:02:08;96597.63;;;21.15;47.32
16834;BME280;8533;48.426;10.868;2023-05-27T11:04:36;96636.97;;;21.85;50.86
16834;BME280;8533;48.426;10.868;2023-05-27T11:07:02;96642.34;;;21.94;50.21
16834;BME280;8533;48.426;10.868;2023-05-27T11:09:28;96624.16;;;21.87;47.70
16834;BME280;8533;48.426;10.868;2023-05-27T11:11:55;96665.50;;;22.07;48.09
16834;BME280;8533;48.426;10.868;2023-05-27T11:14:20;96623.94;;;22.76;44.51
16834;BME280;8533;48.426;10.868;2023-05-27T11:16:50;96586.75;;;21.70;44.86
16834;BME280;8533;48.426;10.868;2023-05-27T11:19:21;96619.44;;;22.94;44.16
16834;BME280;8533;48.426;10.868;2023-05-27T11:21:48;96596.84;;;22.04;44.63
16834;BME280;8533;48.426;10.868;2023-05-27T11:24:17;96607.81;;;22.42;45.43
16834;BME280;8533;48.426;10.868;2023-05-27T11:26:44;96571.38;;;22.29;46.49
16834;BME280;8533;48.426;10.868;2023-05-27T11:29:14;96616.09;;;22.40;45.95
16834;BME280;8533;48.426;10.868;2023-05-27T11:31:40;96509.78;;;21.29;45.53
16834;BME280;8533;48.426;10.868;2023-05-27T11:34:12;96604.44;;;22.19;46.67
16834;BME280;8533;48.426;10.868;2023-05-27T11:36:39;96595.63;;;21.88;46.56
16834;BME280;8533;48.426;10.868;2023-05-27T11:39:05;96596.28;;;22.24;49.08
16834;BME280;8533;48.426;10.868;2023-05-27T11:41:30;96572.31;;;22.33;44.85
16834;BME280;8533;48.426;10.868;2023-05-27T11:43:56;96592.47;;;22.08;47.42
16834;BME280;8533;48.426;10.868;2023-05-27T11:46:23;96582.25;;;22.01;45.44
16834;BME280;8533;48.426;10.868;2023-05-27T11:48:49;96590.88;;;22.55;46.43
16834;BME280;8533;48.426;10.868;2023-05-27T11:51:15;96571.03;;;21.91;44.84
16834;BME280;8533;48.426;10.868;2023-05-27T11:53:44;96587.44;;;22.06;45.40
16834;BME280;8533;48.426;10.868;2023-05-27T11:56:09;96575.63;;;22.38;46.58
16834;BME280;8533;48.426;10.868;2023-05-27T11:58:35;96528.75;;;22.29;45.69
16834;BME280;8533;48.426;10.868;2023-05-27T12:01:02;96551.78;;;22.33;45.57
16834;BME280;8533;48.426;10.868;2023-05-27T12:03:27;96569.44;;;22.60;44.63
16834;BME280;8533;48.426;10.868;2023-05-27T12:05:53;96520.47;;;22.65;44.03
16834;BME280;8533;48.426;10.868;2023-05-27T12:08:18;96568.34;;;22.70;43.00
16834;BME280;8533;48.426;10.868;2023-05-27T12:10:43;96475.28;;;23.11;43.16
16834;BME280;8533;48.426;10.868;2023-05-27T12:13:10;96556.16;;;22.77;43.51
16834;BME280;8533;48.426;10.868;2023-05-27T12:15:35;96561.03;;;22.84;44.59
16834;BME280;8533;48.426;10.868;2023-05-27T12:18:00;96528.50;;;22.08;44.38
16834;BME280;8533;48.426;10.868;2023-05-27T12:20:26;96478.06;;;22.20;44.36
16834;BME280;8533;48.426;10.868;2023-05-27T12:22:53;96521.44;;;22.69;43.72
16834;BME280;8533;48.426;10.868;2023-05-27T12:25:19;96474.88;;;22.01;44.08
16834;BME280;8533;48.426;10.868;2023-05-27T12:27:45;96549.50;;;22.58;42.91
16834;BME280;8533;48.426;10.868;2023-05-27T12:30:10;96539.81;;;22.88;42.71
16834;BME280;8533;48.426;10.868;2023-05-27T12:32:36;96513.63;;;22.98;42.09
16834;BME280;8533;48.426;10.868;2023-05-27T12:35:01;96514.25;;;22.78;42.00
16834;BME280;8533;48.426;10.868;2023-05-27T12:37:26;96457.88;;;22.62;43.00
16834;BME280;8533;48.426;10.868;2023-05-27T12:39:53;96544.34;;;22.70;41.34
16834;BME280;8533;48.426;10.868;2023-05-27T12:42:18;96529.88;;;23.66;40.93
16834;BME280;8533;48.426;10.868;2023-05-27T12:44:43;96530.72;;;22.89;41.10
16834;BME280;8533;48.426;10.868;2023-05-27T12:47:08;96509.38;;;22.80;40.93
16834;BME280;8533;48.426;10.868;2023-05-27T12:49:36;96348.09;;;21.43;40.97
16834;BME280;8533;48.426;10.868;2023-05-27T12:52:01;96523.13;;;22.65;41.15
16834;BME280;8533;48.426;10.868;2023-05-27T12:54:28;96524.13;;;23.12;40.67
16834;BME280;8533;48.426;10.868;2023-05-27T12:56:53;96500.13;;;22.77;40.14
16834;BME280;8533;48.426;10.868;2023-05-27T12:59:19;96511.84;;;23.37;40.09
16834;BME280;8533;48.426;10.868;2023-05-27T13:01:45;96503.69;;;23.88;41.14